Time;durP1;ratioP1;P1;durP2;ratioP2;P2;SDS_P1;SDS_P2;PMS_P1;PMS_P2;Temp;Humidity;BMP_temperature;BMP_pressure;BME280_temperature;BME280_humidity;BME280_pressure;Samples;Min_cycle;Max_cycle;Signal;HPM_P1;HPM_P2
2022/11/11 00:00:25;;;;;;;9.53;2.43;;;;;;;;;;5075427;28;20454;-62
2022/11/11 00:02:52;;;;;;;4.70;2.90;;;;;;;;;;5075327;28;20495;-62
2022/11/11 00:05:20;;;;;;;4.30;2.67;;;;;;;;;;5075452;28;20451;-62
2022/11/11 00:07:47;;;;;;;7.33;2.80;;;;;;;;;;5075492;28;20498;-62
2022/11/11 00:10:14;;;;;;;11.73;3.57;;;;;;;;;;5075414;28;20468;-62
2022/11/11 00:12:41;;;;;;;5.47;2.67;;;;;;;;;;5075188;28;20573;-62
2022/11/11 00:15:09;;;;;;;8.30;2.80;;;;;;;;;;5075127;28;20521;-62
2022/11/11 00:26:04;;;;;;;6.97;3.27;;;;;;;;;;5075240;28;20775;-62
2022/11/11 00:28:31;;;;;;;6.20;3.20;;;;;;;;;;5074895;28;20452;-62
2022/11/11 00:31:05;;;;;;;7.70;2.77;;;;;;;;;;5074866;28;20577;-62
2022/11/11 00:33:34;;;;;;;8.67;3.33;;;;;;;;;;5074852;28;20452;-62
2022/11/11 00:36:00;;;;;;;5.93;3.40;;;;;;;;;;5074653;28;20543;-62
2022/11/11 00:38:45;;;;;;;10.77;3.50;;;;;;;;;;5074555;28;20475;-62
2022/11/11 00:41:12;;;;;;;4.37;2.80;;;;;;;;;;5074764;28;20452;-62
2022/11/11 00:43:39;;;;;;;7.07;2.80;;;;;;;;;;5074697;28;20454;-62
2022/11/11 00:51:37;;;;;;;8.57;3.77;;;;;;;;;;5074381;28;20479;-62
2022/11/11 00:54:05;;;;;;;8.68;3.72;;;;;;;;;;5074537;28;20454;-62
2022/11/11 00:56:32;;;;;;;8.80;3.47;;;;;;;;;;5074513;28;20280;-62
2022/11/11 00:58:59;;;;;;;8.80;3.60;;;;;;;;;;5074341;28;20448;-62
2022/11/11 01:01:27;;;;;;;5.00;3.20;;;;;;;;;;5074741;28;20454;-62
2022/11/11 01:03:54;;;;;;;6.20;2.80;;;;;;;;;;5074383;28;20448;-62
2022/11/11 01:06:21;;;;;;;5.83;2.90;;;;;;;;;;5073730;28;20483;-62
2022/11/11 01:08:48;;;;;;;10.67;3.93;;;;;;;;;;5074007;28;20466;-62
2022/11/11 01:11:15;;;;;;;8.27;2.77;;;;;;;;;;5074000;28;20480;-62
2022/11/11 01:13:42;;;;;;;7.43;3.30;;;;;;;;;;5073807;28;20994;-62
2022/11/11 01:16:11;;;;;;;6.00;3.00;;;;;;;;;;5074036;28;20479;-62
2022/11/11 01:18:39;;;;;;;5.60;3.00;;;;;;;;;;5074196;28;20447;-62
2022/11/11 01:21:07;;;;;;;7.20;2.93;;;;;;;;;;5074151;28;20551;-62
2022/11/11 01:23:36;;;;;;;6.50;3.60;;;;;;;;;;5073823;28;20887;-62
2022/11/11 01:26:03;;;;;;;7.50;3.37;;;;;;;;;;5073706;28;20456;-62
2022/11/11 01:28:30;;;;;;;7.97;3.40;;;;;;;;;;5073847;28;20448;-61
2022/11/11 01:31:00;;;;;;;8.83;3.40;;;;;;;;;;5073756;28;20490;-62
2022/11/11 01:33:28;;;;;;;3.77;2.43;;;;;;;;;;5073822;28;20958;-62
2022/11/11 01:35:57;;;;;;;9.00;3.60;;;;;;;;;;5073576;28;20508;-62
2022/11/11 01:38:23;;;;;;;5.50;3.23;;;;;;;;;;5073421;28;20550;-62
2022/11/11 01:40:50;;;;;;;7.27;3.37;;;;;;;;;;5073309;28;20456;-62
2022/11/11 01:43:20;;;;;;;6.77;3.10;;;;;;;;;;5073597;28;20807;-62
2022/11/11 01:45:49;;;;;;;12.67;3.70;;;;;;;;;;5073420;28;20452;-62
2022/11/11 01:51:07;;;;;;;6.20;3.40;;;;;;;;;;5073183;28;20638;-62
2022/11/11 01:53:36;;;;;;;3.87;2.77;;;;;;;;;;5073206;28;20436;-62
2022/11/11 01:56:03;;;;;;;6.70;3.50;;;;;;;;;;5073282;28;20454;-61
2022/11/11 01:58:30;;;;;;;4.40;3.40;;;;;;;;;;5073211;28;20543;-62
2022/11/11 02:00:58;;;;;;;4.30;3.10;;;;;;;;;;5073134;28;20452;-62
2022/11/11 02:03:26;;;;;;;4.87;2.90;;;;;;;;;;5073144;28;20842;-62
2022/11/11 02:05:55;;;;;;;3.80;2.80;;;;;;;;;;5072949;28;20456;-62
2022/11/11 02:08:33;;;;;;;2.73;2.20;;;;;;;;;;5073128;28;20452;-62
2022/11/11 02:11:01;;;;;;;3.63;2.93;;;;;;;;;;5073086;28;20519;-62
2022/11/11 02:16:13;;;;;;;7.93;2.53;;;;;;;;;;5072775;28;20506;-62
2022/11/11 02:18:40;;;;;;;5.97;2.80;;;;;;;;;;5072989;28;20448;-62
2022/11/11 02:21:07;;;;;;;8.17;3.90;;;;;;;;;;5072861;28;20998;-62
2022/11/11 02:23:39;;;;;;;6.77;3.50;;;;;;;;;;5072969;28;20549;-62
2022/11/11 02:26:09;;;;;;;4.50;3.33;;;;;;;;;;5072880;28;20458;-62
2022/11/11 02:28:37;;;;;;;3.70;3.40;;;;;;;;;;5072654;28;20458;-62
2022/11/11 02:31:04;;;;;;;6.93;3.73;;;;;;;;;;5072784;28;20472;-62
2022/11/11 02:33:31;;;;;;;7.37;3.60;;;;;;;;;;5072807;28;20454;-62
2022/11/11 02:36:01;;;;;;;6.90;3.60;;;;;;;;;;5072805;28;20444;-62
2022/11/11 02:38:29;;;;;;;5.07;3.33;;;;;;;;;;5072695;28;20539;-62
2022/11/11 02:43:42;;;;;;;4.60;3.30;;;;;;;;;;5072607;28;20529;-62
2022/11/11 02:46:09;;;;;;;7.00;3.40;;;;;;;;;;5072774;28;20450;-62
2022/11/11 02:48:36;;;;;;;10.57;5.33;;;;;;;;;;5072436;28;20471;-62
2022/11/11 02:51:04;;;;;;;4.27;3.37;;;;;;;;;;5072465;28;20525;-62
2022/11/11 02:53:31;;;;;;;8.10;4.30;;;;;;;;;;5072543;28;20454;-61
2022/11/11 02:55:58;;;;;;;7.20;3.07;;;;;;;;;;5072439;28;20852;-62
2022/11/11 02:58:25;;;;;;;8.37;3.60;;;;;;;;;;5072610;28;20445;-61
2022/11/11 03:00:53;;;;;;;4.57;2.90;;;;;;;;;;5072591;28;20544;-62
2022/11/11 03:03:20;;;;;;;4.10;3.00;;;;;;;;;;5072575;28;20961;-62
2022/11/11 03:05:47;;;;;;;5.20;3.20;;;;;;;;;;5072387;28;20446;-62
2022/11/11 03:08:14;;;;;;;4.40;3.60;;;;;;;;;;5072243;28;20514;-62
2022/11/11 03:10:41;;;;;;;5.87;2.93;;;;;;;;;;5072456;28;20472;-62
2022/11/11 03:13:08;;;;;;;6.70;3.73;;;;;;;;;;5072433;28;20542;-65
2022/11/11 03:15:34;;;;;;;7.43;3.77;;;;;;;;;;5072365;28;20543;-62
2022/11/11 03:18:02;;;;;;;6.73;4.30;;;;;;;;;;5072310;28;20494;-62
2022/11/11 03:23:17;;;;;;;8.83;3.90;;;;;;;;;;5072259;28;20446;-62
2022/11/11 03:25:46;;;;;;;3.27;2.97;;;;;;;;;;5072361;28;20490;-62
2022/11/11 03:28:15;;;;;;;5.83;3.73;;;;;;;;;;5073138;28;20547;-62
2022/11/11 03:30:45;;;;;;;6.40;2.70;;;;;;;;;;5075815;28;20477;-62
2022/11/11 03:33:14;;;;;;;7.00;3.30;;;;;;;;;;5075867;28;20893;-62
2022/11/11 03:35:41;;;;;;;7.30;3.60;;;;;;;;;;5076001;28;20449;-62
2022/11/11 03:38:23;;;;;;;9.40;3.90;;;;;;;;;;5075897;28;20447;-62
2022/11/11 03:40:51;;;;;;;5.03;3.67;;;;;;;;;;5075976;28;20947;-62
2022/11/11 03:43:18;;;;;;;3.60;3.27;;;;;;;;;;5075643;28;21041;-62
2022/11/11 03:45:46;;;;;;;6.67;2.87;;;;;;;;;;5075565;28;20443;-61
2022/11/11 03:48:14;;;;;;;10.83;3.97;;;;;;;;;;5075601;28;20914;-62
2022/11/11 03:50:41;;;;;;;7.07;3.20;;;;;;;;;;5075931;28;20451;-62
2022/11/11 03:53:10;;;;;;;8.83;3.53;;;;;;;;;;5075711;28;20543;-62
2022/11/11 03:55:37;;;;;;;6.27;3.67;;;;;;;;;;5075619;28;20542;-62
2022/11/11 03:58:04;;;;;;;7.60;3.53;;;;;;;;;;5075349;28;20878;-62
2022/11/11 04:00:31;;;;;;;5.87;3.40;;;;;;;;;;5075343;28;20498;-62
2022/11/11 04:11:22;;;;;;;10.53;3.60;;;;;;;;;;5075197;28;20470;-62
2022/11/11 04:16:36;;;;;;;3.83;3.50;;;;;;;;;;5075157;28;20485;-62
2022/11/11 04:21:49;;;;;;;8.97;4.00;;;;;;;;;;5074986;28;20438;-62
2022/11/11 04:27:02;;;;;;;9.30;3.77;;;;;;;;;;5074895;28;20489;-62
2022/11/11 04:29:29;;;;;;;5.77;3.70;;;;;;;;;;5074746;28;20543;-62
2022/11/11 04:34:41;;;;;;;9.20;4.10;;;;;;;;;;5074823;28;20446;-62
2022/11/11 04:37:09;;;;;;;5.90;3.60;;;;;;;;;;5074743;28;20814;-62
2022/11/11 04:42:21;;;;;;;5.60;3.50;;;;;;;;;;5074714;28;20506;-62
2022/11/11 04:47:32;;;;;;;9.00;3.83;;;;;;;;;;5074308;28;20466;-62
2022/11/11 04:49:59;;;;;;;7.63;3.50;;;;;;;;;;5074423;28;20990;-62
2022/11/11 04:52:29;;;;;;;6.53;3.57;;;;;;;;;;5074237;28;20479;-62
2022/11/11 04:57:42;;;;;;;6.03;3.73;;;;;;;;;;5074359;28;20444;-62
2022/11/11 05:00:10;;;;;;;6.33;3.37;;;;;;;;;;5074296;28;20830;-62
2022/11/11 05:05:21;;;;;;;8.32;3.35;;;;;;;;;;5074177;28;20440;-62
2022/11/11 05:10:34;;;;;;;9.63;3.50;;;;;;;;;;5074065;28;20434;-62
2022/11/11 05:21:22;;;;;;;12.53;3.47;;;;;;;;;;5073823;28;20509;-62
2022/11/11 05:26:35;;;;;;;4.50;3.27;;;;;;;;;;5073693;28;20529;-62
2022/11/11 05:29:02;;;;;;;5.90;3.30;;;;;;;;;;5073670;28;20452;-62
2022/11/11 05:31:30;;;;;;;4.77;3.57;;;;;;;;;;5073593;28;20476;-62
2022/11/11 05:33:57;;;;;;;16.10;7.30;;;;;;;;;;5073474;28;20555;-62
2022/11/11 05:36:25;;;;;;;5.40;3.63;;;;;;;;;;5073472;28;20447;-62
2022/11/11 05:38:54;;;;;;;4.40;3.70;;;;;;;;;;5073578;28;20543;-62
2022/11/11 05:41:22;;;;;;;8.67;2.70;;;;;;;;;;5073505;28;20491;-62
2022/11/11 05:43:49;;;;;;;5.90;3.83;;;;;;;;;;5073382;28;20495;-62
2022/11/11 05:46:16;;;;;;;5.97;3.10;;;;;;;;;;5073390;28;20810;-62
2022/11/11 05:51:27;;;;;;;7.37;3.20;;;;;;;;;;5072511;28;20471;-62
2022/11/11 05:53:55;;;;;;;7.87;3.47;;;;;;;;;;5073205;28;20839;-62
2022/11/11 05:56:22;;;;;;;7.27;3.00;;;;;;;;;;5073178;28;20474;-62
2022/11/11 05:58:49;;;;;;;5.93;3.40;;;;;;;;;;5073040;28;20454;-62
2022/11/11 06:01:18;;;;;;;5.97;4.50;;;;;;;;;;5072966;28;20534;-62
2022/11/11 06:03:45;;;;;;;8.83;3.53;;;;;;;;;;5073240;28;20539;-62
2022/11/11 06:06:12;;;;;;;4.63;3.10;;;;;;;;;;5073064;28;20448;-62
2022/11/11 06:08:39;;;;;;;7.80;3.57;;;;;;;;;;5072939;28;20455;-62
2022/11/11 06:11:07;;;;;;;7.23;3.80;;;;;;;;;;5072857;28;20454;-62
2022/11/11 06:13:34;;;;;;;10.13;3.50;;;;;;;;;;5072668;28;20570;-62
2022/11/11 06:16:01;;;;;;;7.10;3.47;;;;;;;;;;5072804;28;20534;-62
2022/11/11 06:18:28;;;;;;;10.33;5.30;;;;;;;;;;5072674;28;21012;-62
2022/11/11 06:20:55;;;;;;;3.80;3.20;;;;;;;;;;5073094;28;20543;-62
2022/11/11 06:23:22;;;;;;;6.20;4.20;;;;;;;;;;5072688;28;20470;-62
2022/11/11 06:28:37;;;;;;;14.50;3.27;;;;;;;;;;5072568;28;20447;-62
2022/11/11 06:31:06;;;;;;;11.27;3.40;;;;;;;;;;5072556;28;20455;-62
2022/11/11 06:33:33;;;;;;;7.80;3.43;;;;;;;;;;5072555;28;20479;-62
2022/11/11 06:35:59;;;;;;;7.87;4.13;;;;;;;;;;5072679;28;20451;-62
2022/11/11 06:38:26;;;;;;;6.17;2.80;;;;;;;;;;5072272;28;20451;-62
2022/11/11 06:40:53;;;;;;;6.07;3.20;;;;;;;;;;5072392;28;20450;-62
2022/11/11 06:43:20;;;;;;;5.20;3.37;;;;;;;;;;5072631;28;20452;-62
2022/11/11 06:45:51;;;;;;;6.70;3.60;;;;;;;;;;5072516;28;20470;-62
2022/11/11 06:48:19;;;;;;;7.70;3.77;;;;;;;;;;5072270;28;20515;-62
2022/11/11 06:50:45;;;;;;;7.27;3.03;;;;;;;;;;5072373;28;20549;-62
2022/11/11 06:53:13;;;;;;;6.70;3.70;;;;;;;;;;5071964;28;20795;-62
2022/11/11 06:55:40;;;;;;;5.13;2.97;;;;;;;;;;5072488;28;20531;-62
2022/11/11 06:58:08;;;;;;;10.23;3.70;;;;;;;;;;5072343;28;20543;-62
2022/11/11 07:00:35;;;;;;;8.18;4.10;;;;;;;;;;5072476;28;20784;-62
2022/11/11 07:03:03;;;;;;;6.77;3.37;;;;;;;;;;5073165;28;20533;-62
2022/11/11 07:05:30;;;;;;;10.07;3.07;;;;;;;;;;5076435;28;20529;-62
2022/11/11 07:07:57;;;;;;;7.63;3.43;;;;;;;;;;5076107;28;20459;-62
2022/11/11 07:10:24;;;;;;;7.53;3.23;;;;;;;;;;5076288;28;20901;-62
2022/11/11 07:12:51;;;;;;;5.60;3.87;;;;;;;;;;5076112;28;20487;-62
2022/11/11 07:15:18;;;;;;;7.17;3.50;;;;;;;;;;5076166;28;20454;-62
2022/11/11 07:17:44;;;;;;;5.30;3.67;;;;;;;;;;5076080;28;20448;-64
2022/11/11 07:20:13;;;;;;;6.10;4.03;;;;;;;;;;5076066;28;20919;-62
2022/11/11 07:22:39;;;;;;;7.83;3.70;;;;;;;;;;5076212;28;20851;-62
2022/11/11 07:25:07;;;;;;;3.63;3.10;;;;;;;;;;5076092;28;20454;-62
2022/11/11 07:27:38;;;;;;;6.90;3.20;;;;;;;;;;5075933;28;20453;-62
2022/11/11 07:30:06;;;;;;;4.93;3.83;;;;;;;;;;5075968;28;20543;-62
2022/11/11 07:32:34;;;;;;;6.10;3.40;;;;;;;;;;5075659;28;20482;-62
2022/11/11 07:35:00;;;;;;;9.03;3.27;;;;;;;;;;5075710;28;20454;-62
2022/11/11 07:37:31;;;;;;;4.73;3.43;;;;;;;;;;5075832;28;20447;-61
2022/11/11 07:39:57;;;;;;;6.47;3.83;;;;;;;;;;5075677;28;20955;-62
2022/11/11 07:42:24;;;;;;;5.30;3.17;;;;;;;;;;5075707;28;20455;-62
2022/11/11 07:44:51;;;;;;;5.60;3.67;;;;;;;;;;5076097;28;20492;-61
2022/11/11 07:47:19;;;;;;;6.37;3.50;;;;;;;;;;5089845;28;20485;-62
2022/11/11 07:49:46;;;;;;;3.60;2.83;;;;;;;;;;5095110;28;20450;-62
2022/11/11 07:52:14;;;;;;;7.70;3.30;;;;;;;;;;5084764;28;20566;-61
2022/11/11 07:54:45;;;;;;;9.03;3.17;;;;;;;;;;5086921;28;20455;-61
2022/11/11 07:57:13;;;;;;;4.00;3.10;;;;;;;;;;5087074;28;20808;-52
2022/11/11 07:59:41;;;;;;;4.27;3.30;;;;;;;;;;5075317;28;20943;-61
2022/11/11 08:02:09;;;;;;;6.20;3.60;;;;;;;;;;5078532;28;20854;-61
2022/11/11 08:04:38;;;;;;;7.13;2.90;;;;;;;;;;5084575;28;20474;-61
2022/11/11 08:07:05;;;;;;;5.47;3.40;;;;;;;;;;5089485;28;20863;-50
2022/11/11 08:09:32;;;;;;;5.50;3.60;;;;;;;;;;5081734;28;20474;-57
2022/11/11 08:14:44;;;;;;;7.27;3.77;;;;;;;;;;5077085;28;20464;-61
2022/11/11 08:17:11;;;;;;;9.90;3.70;;;;;;;;;;5094828;28;20434;-63
2022/11/11 08:19:38;;;;;;;5.83;3.43;;;;;;;;;;5095014;28;20997;-62
2022/11/11 08:22:05;;;;;;;9.27;3.60;;;;;;;;;;5083879;28;20482;-60
2022/11/11 08:24:32;;;;;;;8.37;3.47;;;;;;;;;;5088132;28;20458;-59
2022/11/11 08:27:00;;;;;;;5.37;3.10;;;;;;;;;;5072048;28;20532;-60
2022/11/11 08:29:27;;;;;;;4.27;2.73;;;;;;;;;;5084127;28;20518;-60
2022/11/11 08:31:54;;;;;;;6.17;4.17;;;;;;;;;;5074267;28;20533;-58
2022/11/11 08:34:21;;;;;;;7.27;3.40;;;;;;;;;;5074585;28;20479;-60
2022/11/11 08:36:47;;;;;;;10.30;4.10;;;;;;;;;;5080060;28;20458;-60
2022/11/11 08:39:14;;;;;;;8.70;3.60;;;;;;;;;;5085274;28;20546;-60
2022/11/11 08:41:41;;;;;;;4.63;3.37;;;;;;;;;;5073842;28;20456;-59
2022/11/11 08:44:10;;;;;;;7.50;3.90;;;;;;;;;;5073937;28;20470;-62
2022/11/11 08:46:37;;;;;;;8.07;3.53;;;;;;;;;;5073954;28;20470;-61
2022/11/11 08:49:10;;;;;;;3.70;3.07;;;;;;;;;;5077261;28;20480;-60
2022/11/11 08:51:37;;;;;;;10.63;3.37;;;;;;;;;;5089697;28;20534;-61
2022/11/11 08:54:04;;;;;;;7.83;3.60;;;;;;;;;;5096992;28;21031;-60
2022/11/11 08:56:31;;;;;;;7.37;3.63;;;;;;;;;;5104248;28;20529;-60
2022/11/11 08:58:57;;;;;;;7.70;3.50;;;;;;;;;;5108238;28;20478;-59
2022/11/11 09:01:26;;;;;;;6.23;2.73;;;;;;;;;;5085175;28;20454;-62
2022/11/11 09:03:52;;;;;;;5.00;2.77;;;;;;;;;;5088961;28;20541;-61
2022/11/11 09:06:19;;;;;;;3.67;3.33;;;;;;;;;;5082104;28;21033;-64
2022/11/11 09:08:46;;;;;;;3.87;2.67;;;;;;;;;;5074108;28;20443;-61
2022/11/11 09:11:13;;;;;;;5.03;2.87;;;;;;;;;;5072095;28;20466;-62
2022/11/11 09:13:40;;;;;;;3.57;3.13;;;;;;;;;;5073619;28;20912;-61
2022/11/11 09:16:08;;;;;;;7.97;3.50;;;;;;;;;;5073433;28;20532;-60
2022/11/11 09:18:36;;;;;;;6.00;2.90;;;;;;;;;;5079280;28;20492;-70
2022/11/11 09:21:03;;;;;;;9.53;3.10;;;;;;;;;;5082367;28;20793;-50
2022/11/11 09:23:32;;;;;;;5.07;2.73;;;;;;;;;;5077376;28;20533;-63
2022/11/11 09:26:02;;;;;;;4.47;2.97;;;;;;;;;;5072008;28;20456;-59
2022/11/11 09:28:30;;;;;;;3.60;2.92;;;;;;;;;;5078479;28;20452;-58
2022/11/11 09:30:59;;;;;;;5.13;2.77;;;;;;;;;;5089455;28;20203;-54
2022/11/11 09:33:26;;;;;;;6.00;3.20;;;;;;;;;;5086255;28;20997;-57
2022/11/11 09:35:54;;;;;;;3.70;2.90;;;;;;;;;;5071734;28;20541;-63
2022/11/11 09:38:21;;;;;;;5.27;3.00;;;;;;;;;;5075250;28;20504;-61
2022/11/11 09:40:52;;;;;;;3.50;2.80;;;;;;;;;;5081575;28;20454;-63
2022/11/11 09:43:49;;;;;;;6.17;3.40;;;;;;;;;;5077405;28;20462;-69
2022/11/11 09:46:22;;;;;;;8.03;3.20;;;;;;;;;;5083690;28;20449;-63
2022/11/11 09:48:58;;;;;;;5.53;2.73;;;;;;;;;;5097367;28;20557;-63
2022/11/11 09:51:29;;;;;;;6.20;2.57;;;;;;;;;;5091887;28;20616;-60
2022/11/11 09:54:00;;;;;;;4.70;2.40;;;;;;;;;;5092570;28;20460;-59
2022/11/11 09:56:28;;;;;;;4.13;2.40;;;;;;;;;;5089199;28;21018;-62
2022/11/11 09:59:01;;;;;;;3.57;2.10;;;;;;;;;;5079995;28;20536;-58
2022/11/11 10:01:29;;;;;;;3.07;2.03;;;;;;;;;;5079218;28;20535;-60
2022/11/11 10:04:01;;;;;;;6.07;2.40;;;;;;;;;;5084719;28;20552;-63
2022/11/11 10:06:31;;;;;;;5.27;2.40;;;;;;;;;;5082762;28;20529;-61
2022/11/11 10:09:01;;;;;;;2.70;1.80;;;;;;;;;;5075759;28;20453;-60
2022/11/11 10:11:31;;;;;;;2.50;1.97;;;;;;;;;;5071096;28;20459;-62
2022/11/11 10:13:58;;;;;;;2.80;2.07;;;;;;;;;;5072038;28;20477;-59
2022/11/11 10:16:28;;;;;;;4.00;1.80;;;;;;;;;;5085388;28;20803;-56
2022/11/11 10:19:03;;;;;;;3.60;2.67;;;;;;;;;;5092566;28;20445;-61
2022/11/11 10:21:35;;;;;;;4.97;2.90;;;;;;;;;;5083666;28;20538;-56
2022/11/11 10:24:03;;;;;;;2.90;2.40;;;;;;;;;;5072868;28;20465;-61
2022/11/11 10:26:35;;;;;;;5.30;2.87;;;;;;;;;;5077807;28;20788;-61
2022/11/11 10:29:03;;;;;;;3.83;2.37;;;;;;;;;;5079616;28;20452;-61
2022/11/11 10:31:31;;;;;;;5.60;2.40;;;;;;;;;;5079185;28;20452;-63
2022/11/11 10:34:01;;;;;;;4.97;2.10;;;;;;;;;;5074938;28;20487;-56
2022/11/11 10:36:29;;;;;;;3.77;2.40;;;;;;;;;;5073356;28;20463;-57
2022/11/11 10:38:59;;;;;;;3.33;2.10;;;;;;;;;;5077764;28;20455;-57
2022/11/11 10:41:27;;;;;;;6.20;2.50;;;;;;;;;;5085477;28;20462;-58
2022/11/11 10:43:54;;;;;;;2.50;2.00;;;;;;;;;;5071832;28;20452;-57
2022/11/11 10:46:24;;;;;;;5.37;3.00;;;;;;;;;;5074711;28;20455;-58
2022/11/11 10:48:53;;;;;;;2.10;1.90;;;;;;;;;;5080064;28;20546;-64
2022/11/11 10:51:21;;;;;;;5.63;2.43;;;;;;;;;;5086453;28;20448;-60
2022/11/11 10:53:55;;;;;;;2.63;2.00;;;;;;;;;;5086774;28;20472;-61
2022/11/11 10:56:26;;;;;;;5.33;2.33;;;;;;;;;;5080643;28;21035;-62
2022/11/11 10:58:57;;;;;;;6.60;2.37;;;;;;;;;;5071225;28;20528;-61
2022/11/11 11:01:28;;;;;;;4.13;2.50;;;;;;;;;;5077982;28;20519;-61
2022/11/11 11:03:58;;;;;;;4.43;1.80;;;;;;;;;;5082850;28;20480;-61
2022/11/11 11:06:27;;;;;;;1.83;1.70;;;;;;;;;;5081442;28;20446;-60
2022/11/11 11:08:56;;;;;;;5.83;2.30;;;;;;;;;;5082145;28;20445;-58
2022/11/11 11:11:26;;;;;;;4.20;2.23;;;;;;;;;;5084355;28;20460;-60
2022/11/11 11:13:54;;;;;;;4.73;2.40;;;;;;;;;;5102372;28;20901;-60
2022/11/11 11:16:23;;;;;;;3.53;1.80;;;;;;;;;;5079698;28;20461;-62
2022/11/11 11:19:05;;;;;;;6.53;2.20;;;;;;;;;;5079366;28;20545;-62
2022/11/11 11:21:50;;;;;;;3.83;3.00;;;;;;;;;;5070648;28;20458;-61
2022/11/11 11:24:19;;;;;;;3.53;2.83;;;;;;;;;;5073187;28;20955;-59
2022/11/11 11:26:50;;;;;;;3.17;2.23;;;;;;;;;;5077244;28;20473;-59
2022/11/11 11:29:25;;;;;;;2.60;2.40;;;;;;;;;;5078782;28;20463;-59
2022/11/11 11:31:52;;;;;;;4.37;3.33;;;;;;;;;;5071813;28;20791;-60
2022/11/11 11:34:19;;;;;;;4.67;2.63;;;;;;;;;;5072851;28;20479;-59
2022/11/11 11:36:59;;;;;;;4.30;2.30;;;;;;;;;;5070774;28;20817;-60
2022/11/11 11:39:33;;;;;;;5.00;3.97;;;;;;;;;;5074381;28;20451;-60
2022/11/11 11:42:02;;;;;;;4.00;3.50;;;;;;;;;;5071943;28;20478;-61
2022/11/11 11:44:29;;;;;;;9.30;2.67;;;;;;;;;;5071093;28;20446;-60
2022/11/11 11:47:00;;;;;;;3.17;2.00;;;;;;;;;;5071326;28;20445;-60
2022/11/11 11:49:30;;;;;;;9.63;4.67;;;;;;;;;;5071735;28;20458;-62
2022/11/11 11:51:58;;;;;;;3.40;2.17;;;;;;;;;;5074846;28;20535;-62
2022/11/11 11:54:51;;;;;;;4.70;2.77;;;;;;;;;;5075175;28;20517;-61
2022/11/11 11:57:27;;;;;;;4.60;2.17;;;;;;;;;;5075006;28;20537;-62
2022/11/11 12:00:00;;;;;;;3.57;2.00;;;;;;;;;;5073828;28;20456;-61
2022/11/11 12:02:40;;;;;;;4.90;3.20;;;;;;;;;;5078879;28;20450;-64
2022/11/11 12:05:11;;;;;;;4.60;2.33;;;;;;;;;;5076760;28;20457;-64
2022/11/11 12:07:45;;;;;;;7.10;5.23;;;;;;;;;;5085413;28;20548;-64
2022/11/11 12:10:18;;;;;;;6.07;5.50;;;;;;;;;;5094723;28;20453;-64
2022/11/11 12:12:51;;;;;;;3.00;2.70;;;;;;;;;;5095252;28;21087;-65
2022/11/11 12:15:25;;;;;;;3.00;2.67;;;;;;;;;;5095133;28;20489;-65
2022/11/11 12:17:56;;;;;;;3.13;2.00;;;;;;;;;;5094067;28;20453;-65
2022/11/11 12:20:26;;;;;;;2.80;2.60;;;;;;;;;;5095167;28;20497;-65
2022/11/11 12:23:06;;;;;;;7.20;3.53;;;;;;;;;;5095375;28;20763;-65
2022/11/11 12:25:38;;;;;;;4.77;2.53;;;;;;;;;;5095190;28;20453;-65
2022/11/11 12:28:11;;;;;;;6.93;3.40;;;;;;;;;;5095128;28;20477;-65
2022/11/11 12:30:38;;;;;;;5.90;2.77;;;;;;;;;;5095046;28;20459;-65
2022/11/11 12:33:10;;;;;;;5.93;3.80;;;;;;;;;;5094951;28;20449;-64
2022/11/11 12:35:57;;;;;;;3.50;3.03;;;;;;;;;;5095061;28;20485;-65
2022/11/11 12:38:33;;;;;;;8.03;2.43;;;;;;;;;;5094908;28;20485;-65
2022/11/11 12:41:03;;;;;;;3.53;2.80;;;;;;;;;;5094871;28;20855;-64
2022/11/11 12:43:38;;;;;;;4.13;3.73;;;;;;;;;;5095007;28;20459;-65
2022/11/11 12:46:12;;;;;;;4.13;3.70;;;;;;;;;;5095063;28;21004;-65
2022/11/11 12:48:47;;;;;;;5.13;4.73;;;;;;;;;;5094326;28;20570;-64
2022/11/11 12:51:20;;;;;;;3.40;2.80;;;;;;;;;;5094763;28;20451;-65
2022/11/11 12:53:51;;;;;;;2.43;2.23;;;;;;;;;;5094433;28;20475;-65
2022/11/11 12:56:23;;;;;;;5.43;2.10;;;;;;;;;;5094714;28;20550;-65
2022/11/11 12:58:56;;;;;;;2.90;1.60;;;;;;;;;;5094580;28;20804;-65
2022/11/11 13:01:29;;;;;;;3.30;2.43;;;;;;;;;;5093420;28;20449;-65
2022/11/11 13:04:03;;;;;;;3.70;2.40;;;;;;;;;;5094309;28;20537;-65
2022/11/11 13:06:43;;;;;;;5.03;3.00;;;;;;;;;;5094466;28;20446;-65
2022/11/11 13:09:18;;;;;;;3.97;3.00;;;;;;;;;;5094306;28;20450;-65
2022/11/11 13:11:49;;;;;;;27.30;18.60;;;;;;;;;;5094442;28;20454;-65
2022/11/11 13:14:31;;;;;;;6.43;4.10;;;;;;;;;;5094169;28;20574;-65
2022/11/11 13:17:01;;;;;;;5.27;3.60;;;;;;;;;;5094256;28;20454;-64
2022/11/11 13:19:34;;;;;;;4.70;3.20;;;;;;;;;;5094249;28;20483;-65
2022/11/11 13:22:03;;;;;;;3.87;3.17;;;;;;;;;;5094296;28;20452;-65
2022/11/11 13:24:31;;;;;;;5.77;4.37;;;;;;;;;;5093828;28;20973;-64
2022/11/11 13:27:03;;;;;;;5.40;3.27;;;;;;;;;;5093862;28;20475;-65
2022/11/11 13:29:48;;;;;;;4.97;4.57;;;;;;;;;;5094126;28;20994;-65
2022/11/11 13:32:16;;;;;;;4.53;2.90;;;;;;;;;;5093987;28;20885;-65
2022/11/11 13:34:43;;;;;;;10.80;4.30;;;;;;;;;;5093763;28;20572;-64
2022/11/11 13:37:18;;;;;;;10.80;7.20;;;;;;;;;;5093687;28;20484;-65
2022/11/11 13:39:47;;;;;;;5.93;4.17;;;;;;;;;;5093899;28;20530;-64
2022/11/11 13:42:14;;;;;;;10.83;9.77;;;;;;;;;;5093742;28;20535;-65
2022/11/11 13:44:48;;;;;;;6.00;3.47;;;;;;;;;;5093268;28;20474;-64
2022/11/11 13:47:19;;;;;;;7.83;5.77;;;;;;;;;;5093366;28;20577;-64
2022/11/11 13:49:52;;;;;;;11.37;4.37;;;;;;;;;;5093431;28;20943;-64
2022/11/11 13:52:21;;;;;;;4.40;4.00;;;;;;;;;;5093601;28;20458;-65
2022/11/11 13:54:50;;;;;;;5.33;4.83;;;;;;;;;;5093492;28;20509;-64
2022/11/11 13:57:19;;;;;;;9.43;4.87;;;;;;;;;;5093413;28;20447;-65
2022/11/11 13:59:53;;;;;;;3.97;2.20;;;;;;;;;;5093290;28;20477;-64
2022/11/11 14:02:32;;;;;;;5.40;2.63;;;;;;;;;;5093099;28;20936;-65
2022/11/11 14:05:18;;;;;;;9.03;2.50;;;;;;;;;;5093002;28;20480;-65
2022/11/11 14:07:48;;;;;;;4.27;2.30;;;;;;;;;;5093011;28;20803;-64
2022/11/11 14:10:30;;;;;;;5.30;2.53;;;;;;;;;;5093091;28;20543;-64
2022/11/11 14:12:57;;;;;;;3.30;2.50;;;;;;;;;;5092472;28;20449;-64
2022/11/11 14:15:36;;;;;;;4.77;2.50;;;;;;;;;;5093043;28;20568;-65
2022/11/11 14:18:03;;;;;;;5.20;2.93;;;;;;;;;;5092913;28;20452;-64
2022/11/11 14:20:37;;;;;;;5.77;2.27;;;;;;;;;;5092790;28;20446;-64
2022/11/11 14:23:22;;;;;;;5.77;2.50;;;;;;;;;;5092985;28;20538;-65
2022/11/11 14:25:50;;;;;;;3.40;2.50;;;;;;;;;;5093126;28;20447;-65
2022/11/11 14:28:21;;;;;;;7.87;3.00;;;;;;;;;;5092772;28;20457;-65
2022/11/11 14:30:50;;;;;;;8.07;3.00;;;;;;;;;;5092895;28;20504;-65
2022/11/11 14:33:23;;;;;;;8.07;4.77;;;;;;;;;;5092896;28;20923;-65
2022/11/11 14:35:57;;;;;;;11.10;4.50;;;;;;;;;;5092570;28;20485;-64
2022/11/11 14:38:30;;;;;;;10.63;6.70;;;;;;;;;;5092998;28;20452;-65
2022/11/11 14:40:57;;;;;;;10.30;6.37;;;;;;;;;;5092833;28;20446;-65
2022/11/11 14:43:35;;;;;;;5.20;3.60;;;;;;;;;;5092700;28;20487;-64
2022/11/11 14:46:04;;;;;;;4.90;2.90;;;;;;;;;;5092687;28;20483;-65
2022/11/11 14:48:50;;;;;;;5.73;2.37;;;;;;;;;;5092391;28;20480;-64
2022/11/11 14:51:35;;;;;;;6.43;3.37;;;;;;;;;;5092808;28;20453;-64
2022/11/11 14:54:03;;;;;;;6.03;2.30;;;;;;;;;;5092650;28;20559;-64
2022/11/11 14:56:30;;;;;;;2.83;2.53;;;;;;;;;;5092454;28;20992;-65
2022/11/11 14:58:59;;;;;;;4.37;2.40;;;;;;;;;;5092485;28;20486;-64
2022/11/11 15:01:27;;;;;;;3.83;2.57;;;;;;;;;;5092657;28;20451;-65
2022/11/11 15:03:55;;;;;;;5.20;2.97;;;;;;;;;;5092499;28;20483;-65
2022/11/11 15:06:24;;;;;;;3.00;2.13;;;;;;;;;;5092436;28;20457;-65
2022/11/11 15:08:55;;;;;;;4.80;2.57;;;;;;;;;;5092426;28;20487;-64
2022/11/11 15:11:26;;;;;;;5.67;2.70;;;;;;;;;;5092334;28;20443;-64
2022/11/11 15:14:06;;;;;;;4.33;3.00;;;;;;;;;;5092311;28;21016;-64
2022/11/11 15:16:42;;;;;;;6.83;2.93;;;;;;;;;;5092374;28;20489;-64
2022/11/11 15:19:15;;;;;;;6.83;3.50;;;;;;;;;;5092186;28;20770;-65
2022/11/11 15:21:46;;;;;;;4.23;2.57;;;;;;;;;;5091921;28;20460;-64
2022/11/11 15:24:19;;;;;;;3.50;2.80;;;;;;;;;;5093554;28;20814;-65
2022/11/11 15:26:51;;;;;;;4.20;3.30;;;;;;;;;;5096167;28;20447;-65
2022/11/11 15:29:29;;;;;;;2.80;2.40;;;;;;;;;;5096146;28;20541;-64
2022/11/11 15:31:59;;;;;;;6.93;2.67;;;;;;;;;;5096014;28;20455;-65
2022/11/11 15:34:30;;;;;;;5.73;3.23;;;;;;;;;;5096095;28;20455;-65
2022/11/11 15:36:58;;;;;;;6.10;2.40;;;;;;;;;;5095908;28;20508;-65
2022/11/11 15:39:27;;;;;;;5.10;3.13;;;;;;;;;;5095935;28;20448;-65
2022/11/11 15:41:55;;;;;;;7.63;3.70;;;;;;;;;;5095872;28;20964;-64
2022/11/11 15:44:24;;;;;;;7.90;4.00;;;;;;;;;;5095798;28;20461;-65
2022/11/11 15:46:51;;;;;;;8.15;4.25;;;;;;;;;;5095816;28;20503;-64
2022/11/11 15:49:32;;;;;;;7.40;4.50;;;;;;;;;;5095354;28;20196;-64
2022/11/11 15:52:01;;;;;;;9.03;4.90;;;;;;;;;;5094425;28;20552;-65
2022/11/11 15:54:28;;;;;;;12.03;4.60;;;;;;;;;;5095829;28;20924;-63
2022/11/11 15:56:54;;;;;;;6.70;4.63;;;;;;;;;;5095239;28;20515;-63
2022/11/11 15:59:23;;;;;;;5.30;4.53;;;;;;;;;;5095581;28;20443;-63
2022/11/11 16:01:50;;;;;;;8.47;4.70;;;;;;;;;;5095373;28;20474;-64
2022/11/11 16:04:19;;;;;;;6.83;5.60;;;;;;;;;;5095382;28;20930;-63
2022/11/11 16:06:47;;;;;;;8.03;5.83;;;;;;;;;;5095254;28;20458;-63
2022/11/11 16:09:16;;;;;;;8.40;5.93;;;;;;;;;;5095015;28;20447;-63
2022/11/11 16:11:43;;;;;;;10.53;8.73;;;;;;;;;;5094709;28;20473;-64
2022/11/11 16:14:15;;;;;;;8.83;6.73;;;;;;;;;;5094978;28;20500;-63